sensor_id;sensor_type;location;lat;lon;timestamp;P1;durP1;ratioP1;P2;durP2;ratioP2
77423;SDS011;66494;47.172;14.678;2023-03-03T00:00:09;16.38;;;9.05;;
77423;SDS011;66494;47.172;14.678;2023-03-03T00:02:09;16.27;;;9.27;;
77423;SDS011;66494;47.172;14.678;2023-03-03T00:03:10;19.23;;;10.18;;
77423;SDS011;66494;47.172;14.678;2023-03-03T00:04:11;16.10;;;8.95;;
77423;SDS011;66494;47.172;14.678;2023-03-03T00:05:11;15.43;;;9.52;;
77423;SDS011;66494;47.172;14.678;2023-03-03T00:06:14;16.65;;;9.98;;
77423;SDS011;66494;47.172;14.678;2023-03-03T00:08:20;18.52;;;9.98;;
77423;SDS011;66494;47.172;14.678;2023-03-03T00:10:21;15.03;;;7.67;;
77423;SDS011;66494;47.172;14.678;2023-03-03T00:11:21;21.00;;;10.32;;
77423;SDS011;66494;47.172;14.678;2023-03-03T00:13:23;16.92;;;8.57;;
77423;SDS011;66494;47.172;14.678;2023-03-03T00:14:30;15.05;;;9.38;;
77423;SDS011;66494;47.172;14.678;2023-03-03T00:15:31;17.38;;;9.52;;
77423;SDS011;66494;47.172;14.678;2023-03-03T00:16:34;16.85;;;9.88;;
77423;SDS011;66494;47.172;14.678;2023-03-03T00:17:36;16.58;;;9.70;;
77423;SDS011;66494;47.172;14.678;2023-03-03T00:18:36;19.67;;;9.48;;
77423;SDS011;66494;47.172;14.678;2023-03-03T00:19:39;14.40;;;9.13;;
77423;SDS011;66494;47.172;14.678;2023-03-03T00:20:45;16.23;;;8.00;;
77423;SDS011;66494;47.172;14.678;2023-03-03T00:21:48;18.33;;;9.43;;
77423;SDS011;66494;47.172;14.678;2023-03-03T00:22:48;16.35;;;9.82;;
77423;SDS011;66494;47.172;14.678;2023-03-03T00:23:49;14.98;;;9.43;;
77423;SDS011;66494;47.172;14.678;2023-03-03T00:25:50;14.52;;;9.23;;
77423;SDS011;66494;47.172;14.678;2023-03-03T00:26:53;17.15;;;8.45;;
77423;SDS011;66494;47.172;14.678;2023-03-03T00:27:54;19.63;;;10.40;;
77423;SDS011;66494;47.172;14.678;2023-03-03T00:28:55;17.52;;;9.75;;
77423;SDS011;66494;47.172;14.678;2023-03-03T00:29:56;16.42;;;9.32;;
77423;SDS011;66494;47.172;14.678;2023-03-03T00:30:58;16.65;;;10.27;;
77423;SDS011;66494;47.172;14.678;2023-03-03T00:32:06;18.10;;;8.57;;
77423;SDS011;66494;47.172;14.678;2023-03-03T00:33:13;15.43;;;7.37;;
77423;SDS011;66494;47.172;14.678;2023-03-03T00:35:26;18.38;;;9.88;;
77423;SDS011;66494;47.172;14.678;2023-03-03T00:36:36;16.65;;;10.40;;
77423;SDS011;66494;47.172;14.678;2023-03-03T00:37:37;15.00;;;8.70;;
77423;SDS011;66494;47.172;14.678;2023-03-03T00:38:39;15.15;;;7.38;;
77423;SDS011;66494;47.172;14.678;2023-03-03T00:39:40;17.70;;;8.95;;
77423;SDS011;66494;47.172;14.678;2023-03-03T00:40:40;19.00;;;10.30;;
77423;SDS011;66494;47.172;14.678;2023-03-03T00:42:41;20.67;;;10.05;;
77423;SDS011;66494;47.172;14.678;2023-03-03T00:43:42;20.45;;;9.05;;
77423;SDS011;66494;47.172;14.678;2023-03-03T00:46:43;15.35;;;8.43;;
77423;SDS011;66494;47.172;14.678;2023-03-03T00:48:43;14.95;;;8.27;;
77423;SDS011;66494;47.172;14.678;2023-03-03T00:49:44;14.98;;;8.70;;
77423;SDS011;66494;47.172;14.678;2023-03-03T00:50:44;15.75;;;9.40;;
77423;SDS011;66494;47.172;14.678;2023-03-03T00:51:44;18.10;;;10.82;;
77423;SDS011;66494;47.172;14.678;2023-03-03T00:52:49;19.88;;;8.75;;
77423;SDS011;66494;47.172;14.678;2023-03-03T00:53:51;16.35;;;9.07;;
77423;SDS011;66494;47.172;14.678;2023-03-03T00:54:52;17.08;;;9.82;;
77423;SDS011;66494;47.172;14.678;2023-03-03T00:55:52;17.80;;;9.30;;
77423;SDS011;66494;47.172;14.678;2023-03-03T00:57:52;19.33;;;8.75;;
77423;SDS011;66494;47.172;14.678;2023-03-03T00:59:53;15.05;;;7.90;;
77423;SDS011;66494;47.172;14.678;2023-03-03T01:01:55;16.10;;;6.47;;
77423;SDS011;66494;47.172;14.678;2023-03-03T01:02:55;14.20;;;7.78;;
77423;SDS011;66494;47.172;14.678;2023-03-03T01:03:56;17.15;;;9.75;;
77423;SDS011;66494;47.172;14.678;2023-03-03T01:04:56;16.42;;;8.82;;
77423;SDS011;66494;47.172;14.678;2023-03-03T01:06:57;17.85;;;9.43;;
77423;SDS011;66494;47.172;14.678;2023-03-03T01:07:57;15.32;;;9.40;;
77423;SDS011;66494;47.172;14.678;2023-03-03T01:08:57;16.27;;;9.65;;
77423;SDS011;66494;47.172;14.678;2023-03-03T01:09:58;17.52;;;9.07;;
77423;SDS011;66494;47.172;14.678;2023-03-03T01:11:08;15.90;;;8.77;;
77423;SDS011;66494;47.172;14.678;2023-03-03T01:12:10;16.73;;;9.35;;
77423;SDS011;66494;47.172;14.678;2023-03-03T01:13:11;17.85;;;9.48;;
77423;SDS011;66494;47.172;14.678;2023-03-03T01:14:11;15.63;;;8.98;;
77423;SDS011;66494;47.172;14.678;2023-03-03T01:16:12;16.70;;;8.70;;
77423;SDS011;66494;47.172;14.678;2023-03-03T01:18:12;15.93;;;8.88;;
77423;SDS011;66494;47.172;14.678;2023-03-03T01:19:12;14.95;;;7.93;;
77423;SDS011;66494;47.172;14.678;2023-03-03T01:20:13;16.27;;;8.75;;
77423;SDS011;66494;47.172;14.678;2023-03-03T01:21:13;16.77;;;8.63;;
77423;SDS011;66494;47.172;14.678;2023-03-03T01:22:14;18.52;;;9.52;;
77423;SDS011;66494;47.172;14.678;2023-03-03T01:23:14;19.73;;;8.60;;
77423;SDS011;66494;47.172;14.678;2023-03-03T01:24:14;18.38;;;9.85;;
77423;SDS011;66494;47.172;14.678;2023-03-03T01:25:14;15.82;;;9.18;;
77423;SDS011;66494;47.172;14.678;2023-03-03T01:26:15;15.48;;;9.15;;
77423;SDS011;66494;47.172;14.678;2023-03-03T01:27:15;17.20;;;8.98;;
77423;SDS011;66494;47.172;14.678;2023-03-03T01:28:16;17.92;;;8.65;;
77423;SDS011;66494;47.172;14.678;2023-03-03T01:29:16;16.27;;;9.75;;
77423;SDS011;66494;47.172;14.678;2023-03-03T01:30:16;15.82;;;8.57;;
77423;SDS011;66494;47.172;14.678;2023-03-03T01:31:17;15.90;;;9.43;;
77423;SDS011;66494;47.172;14.678;2023-03-03T01:32:17;12.98;;;8.23;;
77423;SDS011;66494;47.172;14.678;2023-03-03T01:33:17;15.95;;;9.00;;
77423;SDS011;66494;47.172;14.678;2023-03-03T01:34:18;15.70;;;9.32;;
77423;SDS011;66494;47.172;14.678;2023-03-03T01:35:18;15.70;;;8.80;;
77423;SDS011;66494;47.172;14.678;2023-03-03T01:37:18;11.63;;;6.93;;
77423;SDS011;66494;47.172;14.678;2023-03-03T01:39:19;13.05;;;8.07;;
77423;SDS011;66494;47.172;14.678;2023-03-03T01:41:19;15.65;;;9.13;;
77423;SDS011;66494;47.172;14.678;2023-03-03T01:43:20;15.20;;;8.00;;
77423;SDS011;66494;47.172;14.678;2023-03-03T01:44:20;16.35;;;8.93;;
77423;SDS011;66494;47.172;14.678;2023-03-03T01:45:22;16.58;;;9.05;;
77423;SDS011;66494;47.172;14.678;2023-03-03T01:47:26;17.55;;;9.95;;
77423;SDS011;66494;47.172;14.678;2023-03-03T01:48:28;16.13;;;9.30;;
77423;SDS011;66494;47.172;14.678;2023-03-03T01:49:33;15.68;;;9.25;;
77423;SDS011;66494;47.172;14.678;2023-03-03T01:50:37;16.85;;;9.23;;
77423;SDS011;66494;47.172;14.678;2023-03-03T01:51:42;17.20;;;10.32;;
77423;SDS011;66494;47.172;14.678;2023-03-03T01:52:44;14.70;;;9.23;;
77423;SDS011;66494;47.172;14.678;2023-03-03T01:53:47;15.90;;;8.45;;
77423;SDS011;66494;47.172;14.678;2023-03-03T01:54:52;14.35;;;8.80;;
77423;SDS011;66494;47.172;14.678;2023-03-03T01:55:54;17.55;;;9.18;;
77423;SDS011;66494;47.172;14.678;2023-03-03T01:56:55;16.42;;;9.07;;
77423;SDS011;66494;47.172;14.678;2023-03-03T01:57:58;17.38;;;8.80;;
77423;SDS011;66494;47.172;14.678;2023-03-03T01:59:04;19.58;;;9.23;;
77423;SDS011;66494;47.172;14.678;2023-03-03T02:00:06;17.92;;;9.85;;
77423;SDS011;66494;47.172;14.678;2023-03-03T02:01:08;14.50;;;9.07;;
77423;SDS011;66494;47.172;14.678;2023-03-03T02:02:09;15.65;;;9.43;;
77423;SDS011;66494;47.172;14.678;2023-03-03T02:03:09;18.98;;;11.00;;
77423;SDS011;66494;47.172;14.678;2023-03-03T02:05:10;16.02;;;8.30;;
77423;SDS011;66494;47.172;14.678;2023-03-03T02:06:15;17.45;;;10.18;;
77423;SDS011;66494;47.172;14.678;2023-03-03T02:07:15;17.05;;;8.75;;
77423;SDS011;66494;47.172;14.678;2023-03-03T02:08:18;16.60;;;9.85;;
77423;SDS011;66494;47.172;14.678;2023-03-03T02:09:23;15.10;;;8.82;;
77423;SDS011;66494;47.172;14.678;2023-03-03T02:10:26;15.90;;;8.27;;
77423;SDS011;66494;47.172;14.678;2023-03-03T02:11:28;19.75;;;9.60;;
77423;SDS011;66494;47.172;14.678;2023-03-03T02:12:31;16.60;;;9.27;;
77423;SDS011;66494;47.172;14.678;2023-03-03T02:13:32;17.55;;;8.05;;
77423;SDS011;66494;47.172;14.678;2023-03-03T02:15:33;18.15;;;9.75;;
77423;SDS011;66494;47.172;14.678;2023-03-03T02:16:36;17.52;;;9.40;;
77423;SDS011;66494;47.172;14.678;2023-03-03T02:18:36;13.82;;;8.00;;
77423;SDS011;66494;47.172;14.678;2023-03-03T02:20:43;16.83;;;9.40;;
77423;SDS011;66494;47.172;14.678;2023-03-03T02:21:45;13.65;;;8.35;;
77423;SDS011;66494;47.172;14.678;2023-03-03T02:23:49;22.85;;;8.15;;
77423;SDS011;66494;47.172;14.678;2023-03-03T02:24:52;17.20;;;10.27;;
77423;SDS011;66494;47.172;14.678;2023-03-03T02:26:56;17.88;;;9.82;;
77423;SDS011;66494;47.172;14.678;2023-03-03T02:27:57;14.15;;;8.40;;
77423;SDS011;66494;47.172;14.678;2023-03-03T02:28:57;19.92;;;9.80;;
77423;SDS011;66494;47.172;14.678;2023-03-03T02:30:58;19.38;;;8.60;;
77423;SDS011;66494;47.172;14.678;2023-03-03T02:32:59;13.83;;;6.97;;
77423;SDS011;66494;47.172;14.678;2023-03-03T02:33:59;15.57;;;9.00;;
77423;SDS011;66494;47.172;14.678;2023-03-03T02:34:59;16.95;;;9.73;;
77423;SDS011;66494;47.172;14.678;2023-03-03T02:36:59;13.20;;;8.40;;
77423;SDS011;66494;47.172;14.678;2023-03-03T02:38:20;17.35;;;9.23;;
77423;SDS011;66494;47.172;14.678;2023-03-03T02:39:24;19.83;;;9.63;;
77423;SDS011;66494;47.172;14.678;2023-03-03T02:40:25;19.77;;;10.23;;
77423;SDS011;66494;47.172;14.678;2023-03-03T02:42:27;17.63;;;9.38;;
77423;SDS011;66494;47.172;14.678;2023-03-03T02:44:29;16.63;;;8.57;;
77423;SDS011;66494;47.172;14.678;2023-03-03T02:45:30;17.98;;;10.02;;
77423;SDS011;66494;47.172;14.678;2023-03-03T02:46:38;17.02;;;9.38;;
77423;SDS011;66494;47.172;14.678;2023-03-03T02:47:38;16.20;;;8.90;;
77423;SDS011;66494;47.172;14.678;2023-03-03T02:48:39;15.98;;;9.10;;
77423;SDS011;66494;47.172;14.678;2023-03-03T02:50:39;16.90;;;9.80;;
77423;SDS011;66494;47.172;14.678;2023-03-03T02:52:39;16.23;;;8.38;;
77423;SDS011;66494;47.172;14.678;2023-03-03T02:53:40;14.55;;;8.93;;
77423;SDS011;66494;47.172;14.678;2023-03-03T02:54:40;19.40;;;10.20;;
77423;SDS011;66494;47.172;14.678;2023-03-03T02:55:40;21.55;;;9.80;;
77423;SDS011;66494;47.172;14.678;2023-03-03T02:56:40;20.15;;;9.85;;
77423;SDS011;66494;47.172;14.678;2023-03-03T02:57:41;18.88;;;10.85;;
77423;SDS011;66494;47.172;14.678;2023-03-03T02:58:41;16.85;;;10.15;;
77423;SDS011;66494;47.172;14.678;2023-03-03T02:59:41;18.83;;;9.68;;
77423;SDS011;66494;47.172;14.678;2023-03-03T03:01:41;16.00;;;8.90;;
77423;SDS011;66494;47.172;14.678;2023-03-03T03:03:42;17.77;;;9.70;;
77423;SDS011;66494;47.172;14.678;2023-03-03T03:05:43;16.67;;;8.98;;
77423;SDS011;66494;47.172;14.678;2023-03-03T03:07:43;18.73;;;8.75;;
77423;SDS011;66494;47.172;14.678;2023-03-03T03:09:43;15.75;;;8.88;;
77423;SDS011;66494;47.172;14.678;2023-03-03T03:11:44;16.92;;;8.60;;
77423;SDS011;66494;47.172;14.678;2023-03-03T03:12:44;16.60;;;9.23;;
77423;SDS011;66494;47.172;14.678;2023-03-03T03:13:44;16.23;;;9.77;;
77423;SDS011;66494;47.172;14.678;2023-03-03T03:14:44;19.85;;;9.80;;
77423;SDS011;66494;47.172;14.678;2023-03-03T03:15:45;16.67;;;10.27;;
77423;SDS011;66494;47.172;14.678;2023-03-03T03:17:46;21.40;;;9.47;;
77423;SDS011;66494;47.172;14.678;2023-03-03T03:18:46;19.63;;;10.07;;
77423;SDS011;66494;47.172;14.678;2023-03-03T03:19:46;16.85;;;9.88;;
77423;SDS011;66494;47.172;14.678;2023-03-03T03:20:46;19.52;;;9.52;;
77423;SDS011;66494;47.172;14.678;2023-03-03T03:22:47;15.85;;;8.38;;
77423;SDS011;66494;47.172;14.678;2023-03-03T03:24:47;19.10;;;9.75;;
77423;SDS011;66494;47.172;14.678;2023-03-03T03:25:47;16.05;;;9.38;;
77423;SDS011;66494;47.172;14.678;2023-03-03T03:26:48;17.40;;;9.57;;
77423;SDS011;66494;47.172;14.678;2023-03-03T03:27:48;21.83;;;10.48;;
77423;SDS011;66494;47.172;14.678;2023-03-03T03:28:48;18.77;;;9.98;;
77423;SDS011;66494;47.172;14.678;2023-03-03T03:30:49;17.53;;;9.33;;
77423;SDS011;66494;47.172;14.678;2023-03-03T03:32:50;16.58;;;9.02;;
77423;SDS011;66494;47.172;14.678;2023-03-03T03:34:51;19.93;;;8.70;;
77423;SDS011;66494;47.172;14.678;2023-03-03T03:35:52;16.63;;;9.38;;
77423;SDS011;66494;47.172;14.678;2023-03-03T03:36:54;17.63;;;10.88;;
77423;SDS011;66494;47.172;14.678;2023-03-03T03:37:54;20.48;;;10.57;;
77423;SDS011;66494;47.172;14.678;2023-03-03T03:39:55;15.98;;;8.23;;
77423;SDS011;66494;47.172;14.678;2023-03-03T03:41:55;18.38;;;10.25;;
77423;SDS011;66494;47.172;14.678;2023-03-03T03:42:55;17.42;;;10.50;;
77423;SDS011;66494;47.172;14.678;2023-03-03T03:43:56;17.70;;;10.10;;
77423;SDS011;66494;47.172;14.678;2023-03-03T03:45:56;20.45;;;11.10;;
77423;SDS011;66494;47.172;14.678;2023-03-03T03:47:56;19.17;;;9.27;;
77423;SDS011;66494;47.172;14.678;2023-03-03T03:49:57;18.42;;;9.68;;
77423;SDS011;66494;47.172;14.678;2023-03-03T03:51:57;15.50;;;8.18;;
77423;SDS011;66494;47.172;14.678;2023-03-03T03:52:57;19.48;;;9.95;;
77423;SDS011;66494;47.172;14.678;2023-03-03T03:54:58;17.38;;;9.18;;
77423;SDS011;66494;47.172;14.678;2023-03-03T03:56:58;19.42;;;9.02;;
77423;SDS011;66494;47.172;14.678;2023-03-03T03:57:58;20.63;;;11.05;;
77423;SDS011;66494;47.172;14.678;2023-03-03T03:58:59;16.95;;;9.32;;
77423;SDS011;66494;47.172;14.678;2023-03-03T04:00:00;23.90;;;11.35;;
77423;SDS011;66494;47.172;14.678;2023-03-03T04:01:01;18.05;;;9.95;;
77423;SDS011;66494;47.172;14.678;2023-03-03T04:02:01;20.38;;;10.07;;
77423;SDS011;66494;47.172;14.678;2023-03-03T04:03:01;22.20;;;10.52;;
77423;SDS011;66494;47.172;14.678;2023-03-03T04:05:03;16.77;;;9.65;;
77423;SDS011;66494;47.172;14.678;2023-03-03T04:06:03;20.02;;;10.63;;
77423;SDS011;66494;47.172;14.678;2023-03-03T04:08:04;17.20;;;9.30;;
77423;SDS011;66494;47.172;14.678;2023-03-03T04:10:04;16.67;;;8.80;;
77423;SDS011;66494;47.172;14.678;2023-03-03T04:12:05;15.75;;;8.93;;
77423;SDS011;66494;47.172;14.678;2023-03-03T04:14:05;23.63;;;9.63;;
77423;SDS011;66494;47.172;14.678;2023-03-03T04:15:10;17.42;;;8.95;;
77423;SDS011;66494;47.172;14.678;2023-03-03T04:16:10;17.67;;;9.77;;
77423;SDS011;66494;47.172;14.678;2023-03-03T04:18:11;15.63;;;9.13;;
77423;SDS011;66494;47.172;14.678;2023-03-03T04:20:12;26.15;;;10.68;;
77423;SDS011;66494;47.172;14.678;2023-03-03T04:22:13;19.63;;;8.00;;
77423;SDS011;66494;47.172;14.678;2023-03-03T04:24:14;16.20;;;7.83;;
77423;SDS011;66494;47.172;14.678;2023-03-03T04:26:14;17.20;;;9.18;;
77423;SDS011;66494;47.172;14.678;2023-03-03T04:28:15;18.95;;;9.32;;
77423;SDS011;66494;47.172;14.678;2023-03-03T04:30:15;19.03;;;9.73;;
77423;SDS011;66494;47.172;14.678;2023-03-03T04:31:16;21.05;;;10.50;;
77423;SDS011;66494;47.172;14.678;2023-03-03T04:33:17;16.60;;;9.23;;
77423;SDS011;66494;47.172;14.678;2023-03-03T04:35:18;19.85;;;10.68;;
77423;SDS011;66494;47.172;14.678;2023-03-03T04:37:18;20.95;;;10.60;;
77423;SDS011;66494;47.172;14.678;2023-03-03T04:38:18;22.10;;;11.15;;
77423;SDS011;66494;47.172;14.678;2023-03-03T04:39:19;21.48;;;12.32;;
77423;SDS011;66494;47.172;14.678;2023-03-03T04:40:19;21.38;;;11.13;;
77423;SDS011;66494;47.172;14.678;2023-03-03T04:41:19;17.90;;;9.90;;
77423;SDS011;66494;47.172;14.678;2023-03-03T04:42:19;19.73;;;10.93;;
77423;SDS011;66494;47.172;14.678;2023-03-03T04:43:20;18.52;;;10.50;;
77423;SDS011;66494;47.172;14.678;2023-03-03T04:44:20;20.50;;;10.25;;
77423;SDS011;66494;47.172;14.678;2023-03-03T04:46:21;18.60;;;11.23;;
77423;SDS011;66494;47.172;14.678;2023-03-03T04:47:21;17.67;;;10.43;;
77423;SDS011;66494;47.172;14.678;2023-03-03T04:48:21;18.70;;;10.32;;
77423;SDS011;66494;47.172;14.678;2023-03-03T04:49:22;19.40;;;10.65;;
77423;SDS011;66494;47.172;14.678;2023-03-03T04:50:22;19.85;;;10.52;;
77423;SDS011;66494;47.172;14.678;2023-03-03T04:51:22;23.90;;;11.10;;
77423;SDS011;66494;47.172;14.678;2023-03-03T04:52:22;18.35;;;9.73;;
77423;SDS011;66494;47.172;14.678;2023-03-03T04:53:23;19.08;;;10.18;;
77423;SDS011;66494;47.172;14.678;2023-03-03T04:55:23;15.73;;;9.07;;
77423;SDS011;66494;47.172;14.678;2023-03-03T04:57:23;19.33;;;10.10;;
77423;SDS011;66494;47.172;14.678;2023-03-03T04:58:24;20.25;;;10.07;;
77423;SDS011;66494;47.172;14.678;2023-03-03T04:59:24;18.77;;;9.52;;
77423;SDS011;66494;47.172;14.678;2023-03-03T05:00:24;20.75;;;10.98;;
77423;SDS011;66494;47.172;14.678;2023-03-03T05:01:24;20.23;;;9.73;;
77423;SDS011;66494;47.172;14.678;2023-03-03T05:02:24;19.02;;;9.57;;
77423;SDS011;66494;47.172;14.678;2023-03-03T05:03:25;18.40;;;10.88;;
77423;SDS011;66494;47.172;14.678;2023-03-03T05:04:26;18.13;;;9.32;;
77423;SDS011;66494;47.172;14.678;2023-03-03T05:05:26;19.77;;;10.18;;
77423;SDS011;66494;47.172;14.678;2023-03-03T05:06:26;15.57;;;9.52;;
77423;SDS011;66494;47.172;14.678;2023-03-03T05:08:26;16.23;;;9.68;;
77423;SDS011;66494;47.172;14.678;2023-03-03T05:10:27;17.33;;;9.18;;
77423;SDS011;66494;47.172;14.678;2023-03-03T05:12:28;17.58;;;9.40;;
77423;SDS011;66494;47.172;14.678;2023-03-03T05:14:28;14.63;;;6.80;;
77423;SDS011;66494;47.172;14.678;2023-03-03T05:15:30;18.92;;;10.20;;
77423;SDS011;66494;47.172;14.678;2023-03-03T05:16:30;19.27;;;9.18;;
77423;SDS011;66494;47.172;14.678;2023-03-03T05:17:31;18.20;;;9.98;;
77423;SDS011;66494;47.172;14.678;2023-03-03T05:18:31;18.15;;;10.13;;
77423;SDS011;66494;47.172;14.678;2023-03-03T05:19:31;15.57;;;9.05;;
77423;SDS011;66494;47.172;14.678;2023-03-03T05:20:33;20.98;;;9.55;;
77423;SDS011;66494;47.172;14.678;2023-03-03T05:21:34;15.65;;;9.40;;
77423;SDS011;66494;47.172;14.678;2023-03-03T05:23:34;16.65;;;9.30;;
77423;SDS011;66494;47.172;14.678;2023-03-03T05:24:34;19.08;;;10.63;;
77423;SDS011;66494;47.172;14.678;2023-03-03T05:25:35;18.55;;;9.98;;
77423;SDS011;66494;47.172;14.678;2023-03-03T05:26:35;20.58;;;10.98;;
77423;SDS011;66494;47.172;14.678;2023-03-03T05:28:35;16.98;;;9.23;;
77423;SDS011;66494;47.172;14.678;2023-03-03T05:30:36;19.65;;;10.32;;
77423;SDS011;66494;47.172;14.678;2023-03-03T05:31:36;15.80;;;8.82;;
77423;SDS011;66494;47.172;14.678;2023-03-03T05:32:36;18.38;;;9.30;;
77423;SDS011;66494;47.172;14.678;2023-03-03T05:33:37;20.60;;;10.95;;
77423;SDS011;66494;47.172;14.678;2023-03-03T05:34:37;21.13;;;10.32;;
77423;SDS011;66494;47.172;14.678;2023-03-03T05:36:37;17.15;;;8.48;;
77423;SDS011;66494;47.172;14.678;2023-03-03T05:38:41;20.15;;;9.05;;
77423;SDS011;66494;47.172;14.678;2023-03-03T05:39:41;21.40;;;10.35;;
77423;SDS011;66494;47.172;14.678;2023-03-03T05:40:43;17.75;;;9.68;;
77423;SDS011;66494;47.172;14.678;2023-03-03T05:41:43;19.05;;;9.70;;
77423;SDS011;66494;47.172;14.678;2023-03-03T05:42:44;19.73;;;9.68;;
77423;SDS011;66494;47.172;14.678;2023-03-03T05:43:44;19.15;;;9.70;;
77423;SDS011;66494;47.172;14.678;2023-03-03T05:44:44;16.75;;;9.73;;
77423;SDS011;66494;47.172;14.678;2023-03-03T05:45:44;21.85;;;10.90;;
77423;SDS011;66494;47.172;14.678;2023-03-03T05:46:45;18.63;;;10.23;;
77423;SDS011;66494;47.172;14.678;2023-03-03T05:48:45;20.27;;;10.45;;
77423;SDS011;66494;47.172;14.678;2023-03-03T05:50:45;17.90;;;9.05;;
77423;SDS011;66494;47.172;14.678;2023-03-03T05:52:49;18.45;;;9.77;;
77423;SDS011;66494;47.172;14.678;2023-03-03T05:53:49;26.35;;;10.88;;
77423;SDS011;66494;47.172;14.678;2023-03-03T05:54:50;24.23;;;11.50;;
77423;SDS011;66494;47.172;14.678;2023-03-03T05:55:50;22.70;;;10.90;;
77423;SDS011;66494;47.172;14.678;2023-03-03T05:56:50;18.70;;;10.50;;
77423;SDS011;66494;47.172;14.678;2023-03-03T05:57:50;18.67;;;10.65;;
77423;SDS011;66494;47.172;14.678;2023-03-03T05:59:51;25.23;;;9.98;;
77423;SDS011;66494;47.172;14.678;2023-03-03T06:01:51;33.83;;;10.95;;
77423;SDS011;66494;47.172;14.678;2023-03-03T06:02:51;21.67;;;11.43;;
77423;SDS011;66494;47.172;14.678;2023-03-03T06:03:52;24.15;;;11.65;;
77423;SDS011;66494;47.172;14.678;2023-03-03T06:04:52;25.00;;;11.90;;
77423;SDS011;66494;47.172;14.678;2023-03-03T06:06:52;18.23;;;9.95;;
77423;SDS011;66494;47.172;14.678;2023-03-03T06:08:53;23.85;;;11.77;;
77423;SDS011;66494;47.172;14.678;2023-03-03T06:09:53;20.45;;;11.10;;
77423;SDS011;66494;47.172;14.678;2023-03-03T06:10:53;21.52;;;11.93;;
77423;SDS011;66494;47.172;14.678;2023-03-03T06:11:54;22.83;;;12.05;;
77423;SDS011;66494;47.172;14.678;2023-03-03T06:12:54;23.63;;;10.98;;
77423;SDS011;66494;47.172;14.678;2023-03-03T06:13:54;23.77;;;12.48;;
77423;SDS011;66494;47.172;14.678;2023-03-03T06:14:54;21.85;;;11.45;;
77423;SDS011;66494;47.172;14.678;2023-03-03T06:15:55;27.20;;;11.18;;
77423;SDS011;66494;47.172;14.678;2023-03-03T06:17:56;21.77;;;10.50;;
77423;SDS011;66494;47.172;14.678;2023-03-03T06:18:57;23.63;;;11.38;;
77423;SDS011;66494;47.172;14.678;2023-03-03T06:19:57;20.42;;;11.88;;
77423;SDS011;66494;47.172;14.678;2023-03-03T06:20:57;24.70;;;11.20;;
77423;SDS011;66494;47.172;14.678;2023-03-03T06:21:57;24.25;;;11.73;;
77423;SDS011;66494;47.172;14.678;2023-03-03T06:22:57;21.80;;;12.05;;
77423;SDS011;66494;47.172;14.678;2023-03-03T06:23:58;23.05;;;10.82;;
77423;SDS011;66494;47.172;14.678;2023-03-03T06:24:58;21.48;;;11.38;;
77423;SDS011;66494;47.172;14.678;2023-03-03T06:25:58;22.38;;;10.68;;
77423;SDS011;66494;47.172;14.678;2023-03-03T06:26:59;24.67;;;11.25;;
77423;SDS011;66494;47.172;14.678;2023-03-03T06:27:59;22.90;;;11.45;;
77423;SDS011;66494;47.172;14.678;2023-03-03T06:28:59;21.17;;;11.07;;
77423;SDS011;66494;47.172;14.678;2023-03-03T06:30:00;20.77;;;10.30;;
77423;SDS011;66494;47.172;14.678;2023-03-03T06:31:00;22.55;;;11.98;;
77423;SDS011;66494;47.172;14.678;2023-03-03T06:32:00;17.98;;;10.20;;
77423;SDS011;66494;47.172;14.678;2023-03-03T06:33:01;21.33;;;11.15;;
77423;SDS011;66494;47.172;14.678;2023-03-03T06:34:01;21.10;;;11.60;;
77423;SDS011;66494;47.172;14.678;2023-03-03T06:35:01;18.65;;;10.57;;
77423;SDS011;66494;47.172;14.678;2023-03-03T06:36:01;20.35;;;10.98;;
77423;SDS011;66494;47.172;14.678;2023-03-03T06:37:02;16.00;;;10.57;;
77423;SDS011;66494;47.172;14.678;2023-03-03T06:38:02;20.23;;;11.27;;
77423;SDS011;66494;47.172;14.678;2023-03-03T06:40:03;17.65;;;10.00;;
77423;SDS011;66494;47.172;14.678;2023-03-03T06:42:06;19.50;;;10.40;;
77423;SDS011;66494;47.172;14.678;2023-03-03T06:43:08;20.10;;;11.18;;
77423;SDS011;66494;47.172;14.678;2023-03-03T06:45:11;21.00;;;11.10;;
77423;SDS011;66494;47.172;14.678;2023-03-03T06:46:11;22.27;;;11.98;;
77423;SDS011;66494;47.172;14.678;2023-03-03T06:47:11;21.45;;;11.95;;
77423;SDS011;66494;47.172;14.678;2023-03-03T06:48:11;21.40;;;12.05;;
77423;SDS011;66494;47.172;14.678;2023-03-03T06:50:12;24.35;;;12.45;;
77423;SDS011;66494;47.172;14.678;2023-03-03T06:52:16;24.60;;;11.90;;
77423;SDS011;66494;47.172;14.678;2023-03-03T06:53:18;23.88;;;12.88;;
77423;SDS011;66494;47.172;14.678;2023-03-03T06:54:19;20.23;;;12.02;;
77423;SDS011;66494;47.172;14.678;2023-03-03T06:55:21;22.10;;;12.88;;
77423;SDS011;66494;47.172;14.678;2023-03-03T06:56:22;24.65;;;12.82;;
77423;SDS011;66494;47.172;14.678;2023-03-03T06:58:24;22.40;;;12.73;;
77423;SDS011;66494;47.172;14.678;2023-03-03T06:59:26;19.13;;;11.35;;
77423;SDS011;66494;47.172;14.678;2023-03-03T07:01:29;26.30;;;11.93;;
77423;SDS011;66494;47.172;14.678;2023-03-03T07:02:32;25.48;;;12.57;;
77423;SDS011;66494;47.172;14.678;2023-03-03T07:04:33;21.98;;;10.88;;
77423;SDS011;66494;47.172;14.678;2023-03-03T07:05:33;22.17;;;11.63;;
77423;SDS011;66494;47.172;14.678;2023-03-03T07:06:33;19.42;;;11.00;;
77423;SDS011;66494;47.172;14.678;2023-03-03T07:07:33;23.55;;;11.65;;
77423;SDS011;66494;47.172;14.678;2023-03-03T07:08:34;21.05;;;11.52;;
77423;SDS011;66494;47.172;14.678;2023-03-03T07:09:34;20.05;;;11.57;;
77423;SDS011;66494;47.172;14.678;2023-03-03T07:10:34;24.60;;;14.02;;
77423;SDS011;66494;47.172;14.678;2023-03-03T07:11:35;21.90;;;11.95;;
77423;SDS011;66494;47.172;14.678;2023-03-03T07:12:38;24.73;;;12.35;;
77423;SDS011;66494;47.172;14.678;2023-03-03T07:13:39;24.25;;;12.80;;
77423;SDS011;66494;47.172;14.678;2023-03-03T07:14:41;21.90;;;12.07;;
77423;SDS011;66494;47.172;14.678;2023-03-03T07:15:42;23.92;;;12.63;;
77423;SDS011;66494;47.172;14.678;2023-03-03T07:17:44;24.42;;;11.13;;
77423;SDS011;66494;47.172;14.678;2023-03-03T07:18:51;23.35;;;12.27;;
77423;SDS011;66494;47.172;14.678;2023-03-03T07:19:52;24.98;;;11.65;;
77423;SDS011;66494;47.172;14.678;2023-03-03T07:21:53;18.85;;;11.30;;
77423;SDS011;66494;47.172;14.678;2023-03-03T07:22:53;26.25;;;12.40;;
77423;SDS011;66494;47.172;14.678;2023-03-03T07:23:54;22.35;;;13.68;;
77423;SDS011;66494;47.172;14.678;2023-03-03T07:24:56;22.35;;;12.10;;
77423;SDS011;66494;47.172;14.678;2023-03-03T07:25:58;20.73;;;12.15;;
77423;SDS011;66494;47.172;14.678;2023-03-03T07:27:11;21.23;;;12.07;;
77423;SDS011;66494;47.172;14.678;2023-03-03T07:29:25;23.08;;;11.93;;
77423;SDS011;66494;47.172;14.678;2023-03-03T07:30:26;27.63;;;12.73;;
77423;SDS011;66494;47.172;14.678;2023-03-03T07:31:32;22.60;;;12.65;;
77423;SDS011;66494;47.172;14.678;2023-03-03T07:34:37;22.73;;;13.23;;
77423;SDS011;66494;47.172;14.678;2023-03-03T07:35:42;21.67;;;11.77;;
77423;SDS011;66494;47.172;14.678;2023-03-03T07:36:42;25.42;;;12.50;;
77423;SDS011;66494;47.172;14.678;2023-03-03T07:37:43;25.70;;;12.60;;